createdAt,value
2018-04-04T00:01:16.000Z,98910
2018-04-04T00:02:31.000Z,98909
2018-04-04T00:04:31.000Z,98910
2018-04-04T00:05:31.000Z,98908
2018-04-04T00:07:31.000Z,98919
2018-04-04T00:08:31.000Z,98918
2018-04-04T00:10:31.000Z,98921
2018-04-04T00:12:31.000Z,98913
2018-04-04T00:14:31.000Z,98911
2018-04-04T00:16:31.000Z,98913
2018-04-04T00:18:16.000Z,98919
2018-04-04T00:19:31.000Z,98923
2018-04-04T00:20:31.000Z,98931
2018-04-04T00:22:31.000Z,98919
2018-04-04T00:24:16.000Z,98921
2018-04-04T00:25:31.000Z,98930
2018-04-04T00:27:31.000Z,98941
2018-04-04T00:28:31.000Z,98942
2018-04-04T00:30:31.000Z,98929
2018-04-04T00:32:31.000Z,98954
2018-04-04T00:34:31.000Z,98943
2018-04-04T00:36:31.000Z,98943
2018-04-04T00:37:31.000Z,98945
2018-04-04T00:39:31.000Z,98947
2018-04-04T00:41:31.000Z,98944
2018-04-04T00:42:31.000Z,98949
2018-04-04T00:43:31.000Z,98938
2018-04-04T00:45:31.000Z,98940
2018-04-04T00:47:31.000Z,98949
2018-04-04T00:49:31.000Z,98949
2018-04-04T00:51:31.000Z,98951
2018-04-04T00:53:31.000Z,98956
2018-04-04T00:54:31.000Z,98956
2018-04-04T00:56:16.000Z,98954
2018-04-04T01:00:02.000Z,98970
2018-04-04T01:02:02.000Z,98975
2018-04-04T01:03:02.000Z,98967
2018-04-04T01:05:02.000Z,98972
2018-04-04T01:06:02.000Z,98967
2018-04-04T01:08:02.000Z,98973
2018-04-04T01:09:46.000Z,98970
2018-04-04T01:11:02.000Z,98977
2018-04-04T01:12:02.000Z,98971
2018-04-04T01:14:02.000Z,98972
2018-04-04T01:15:02.000Z,98968
2018-04-04T01:16:02.000Z,98976
2018-04-04T01:18:02.000Z,98979
2018-04-04T01:19:46.000Z,98972
2018-04-04T01:21:02.000Z,98967
2018-04-04T01:22:02.000Z,98974
2018-04-04T01:24:02.000Z,98976
2018-04-04T01:26:01.000Z,98978
2018-04-04T01:28:01.000Z,98981
2018-04-04T01:29:01.000Z,98977
2018-04-04T01:30:01.000Z,98981
2018-04-04T01:31:01.000Z,98982
2018-04-04T01:32:46.000Z,98980
2018-04-04T01:34:01.000Z,98977
2018-04-04T01:36:01.000Z,98980
2018-04-04T01:38:01.000Z,98980
2018-04-04T01:40:01.000Z,98989
2018-04-04T01:41:46.000Z,98984
2018-04-04T01:43:01.000Z,98988
2018-04-04T01:45:01.000Z,98988
2018-04-04T01:46:01.000Z,98991
2018-04-04T01:47:46.000Z,98990
2018-04-04T01:49:01.000Z,98993
2018-04-04T01:50:01.000Z,98993
2018-04-04T01:52:01.000Z,98996
2018-04-04T01:54:01.000Z,98997
2018-04-04T01:56:01.000Z,98989
2018-04-04T01:58:01.000Z,98994
2018-04-04T01:59:46.000Z,98997
2018-04-04T02:01:01.000Z,99000
2018-04-04T02:02:01.000Z,98996
2018-04-04T02:04:01.000Z,99006
2018-04-04T02:05:01.000Z,99003
2018-04-04T02:07:01.000Z,99008
2018-04-04T02:09:01.000Z,99005
2018-04-04T02:10:01.000Z,99005
2018-04-04T02:11:01.000Z,98998
2018-04-04T02:13:01.000Z,99006
2018-04-04T02:15:01.000Z,98998
2018-04-04T02:16:01.000Z,98992
2018-04-04T02:18:01.000Z,98999
2018-04-04T02:19:46.000Z,98995
2018-04-04T02:21:01.000Z,98981
2018-04-04T02:23:01.000Z,98999
2018-04-04T02:25:01.000Z,99002
2018-04-04T02:27:01.000Z,99005
2018-04-04T02:29:02.000Z,99007
2018-04-04T02:30:46.000Z,99010
2018-04-04T02:32:02.000Z,99006
2018-04-04T02:34:02.000Z,99012
2018-04-04T02:36:02.000Z,99016
2018-04-04T02:38:02.000Z,99023
2018-04-04T02:39:46.000Z,99028
2018-04-04T02:41:02.000Z,99029
2018-04-04T02:43:02.000Z,99032
2018-04-04T02:45:02.000Z,99037
2018-04-04T02:46:02.000Z,99041
2018-04-04T02:48:02.000Z,99036
2018-04-04T02:50:02.000Z,99036
2018-04-04T02:52:02.000Z,99036
2018-04-04T02:53:02.000Z,99035
2018-04-04T02:55:02.000Z,99039
2018-04-04T02:57:02.000Z,99036
2018-04-04T02:58:02.000Z,99042
2018-04-04T03:00:02.000Z,99035
2018-04-04T03:02:02.000Z,99037
2018-04-04T03:03:02.000Z,99042
2018-04-04T03:04:02.000Z,99032
2018-04-04T03:05:46.000Z,99032
2018-04-04T03:07:02.000Z,99031
2018-04-04T03:08:46.000Z,99027
2018-04-04T03:10:02.000Z,99034
2018-04-04T03:12:02.000Z,99032
2018-04-04T03:13:02.000Z,99026
2018-04-04T03:14:02.000Z,99024
2018-04-04T03:15:46.000Z,99024
2018-04-04T03:17:02.000Z,99030
2018-04-04T03:19:02.000Z,99026
2018-04-04T03:21:02.000Z,99018
2018-04-04T03:22:02.000Z,99021
2018-04-04T03:24:02.000Z,99014
2018-04-04T03:25:46.000Z,99019
2018-04-04T03:27:02.000Z,99018
2018-04-04T03:28:02.000Z,99017
2018-04-04T03:30:02.000Z,99016
2018-04-04T03:31:02.000Z,99004
2018-04-04T03:33:02.000Z,99013
2018-04-04T03:34:02.000Z,99014
2018-04-04T03:36:02.000Z,99014
2018-04-04T03:37:02.000Z,99027
2018-04-04T03:39:02.000Z,99015
2018-04-04T03:40:02.000Z,99020
2018-04-04T03:41:02.000Z,99018
2018-04-04T03:43:02.000Z,99014
2018-04-04T03:45:02.000Z,99021
2018-04-04T03:46:02.000Z,99021
2018-04-04T03:48:02.000Z,99017
2018-04-04T03:49:46.000Z,99018
2018-04-04T03:51:02.000Z,99015
2018-04-04T03:53:02.000Z,99005
2018-04-04T03:54:02.000Z,99007
2018-04-04T03:56:02.000Z,99005
2018-04-04T03:58:02.000Z,99006
2018-04-04T03:59:46.000Z,99003
2018-04-04T04:01:02.000Z,98999
2018-04-04T04:03:02.000Z,98996
2018-04-04T04:05:02.000Z,98994
2018-04-04T04:07:02.000Z,99001
2018-04-04T04:09:02.000Z,98999
2018-04-04T04:10:02.000Z,98995
2018-04-04T04:11:02.000Z,98992
2018-04-04T04:12:02.000Z,98993
2018-04-04T04:14:02.000Z,98979
2018-04-04T04:16:02.000Z,98987
2018-04-04T04:18:02.000Z,98982
2018-04-04T04:20:02.000Z,98979
2018-04-04T04:22:02.000Z,98974
2018-04-04T04:24:02.000Z,98965
2018-04-04T04:25:02.000Z,98968
2018-04-04T04:27:02.000Z,98963
2018-04-04T04:28:02.000Z,98967
2018-04-04T04:30:02.000Z,98968
2018-04-04T04:32:02.000Z,98963
2018-04-04T04:33:02.000Z,98968
2018-04-04T04:35:02.000Z,98962
2018-04-04T04:37:02.000Z,98968
2018-04-04T04:39:02.000Z,98978
2018-04-04T04:41:02.000Z,98968
2018-04-04T04:43:02.000Z,98974
2018-04-04T04:44:02.000Z,98977
2018-04-04T04:45:02.000Z,98971
2018-04-04T04:47:02.000Z,98976
2018-04-04T04:48:46.000Z,98981
2018-04-04T04:50:02.000Z,98980
2018-04-04T04:51:02.000Z,98983
2018-04-04T04:53:02.000Z,98980
2018-04-04T04:55:02.000Z,98980
2018-04-04T04:56:02.000Z,98979
2018-04-04T04:57:02.000Z,98988
2018-04-04T04:59:02.000Z,98990
2018-04-04T05:01:02.000Z,98989
2018-04-04T05:02:02.000Z,98990
2018-04-04T05:03:46.000Z,98982
2018-04-04T05:05:02.000Z,98986
2018-04-04T05:06:02.000Z,98978
2018-04-04T05:07:02.000Z,98979
2018-04-04T05:09:02.000Z,98984
2018-04-04T05:10:46.000Z,98981
2018-04-04T05:12:02.000Z,98981
2018-04-04T05:13:02.000Z,98976
2018-04-04T05:15:02.000Z,98973
2018-04-04T05:17:02.000Z,98974
2018-04-04T05:19:02.000Z,98971
2018-04-04T05:20:02.000Z,98976
2018-04-04T05:22:02.000Z,98969
2018-04-04T05:24:02.000Z,98976
2018-04-04T05:26:02.000Z,98978
2018-04-04T05:28:02.000Z,98970
2018-04-04T05:30:02.000Z,98969
2018-04-04T05:31:46.000Z,98977
2018-04-04T05:33:02.000Z,98973
2018-04-04T05:34:02.000Z,98970
2018-04-04T05:35:47.000Z,98959
2018-04-04T05:38:02.000Z,98969
2018-04-04T05:40:01.000Z,98973
2018-04-04T05:42:01.000Z,98972
2018-04-04T05:43:01.000Z,98975
2018-04-04T05:44:01.000Z,98978
2018-04-04T05:46:01.000Z,98979
2018-04-04T05:47:46.000Z,98978
2018-04-04T05:49:01.000Z,98975
2018-04-04T05:51:01.000Z,98979
2018-04-04T05:53:01.000Z,98964
2018-04-04T05:55:01.000Z,98961
2018-04-04T05:56:46.000Z,98955
2018-04-04T05:58:01.000Z,98961
2018-04-04T06:00:01.000Z,98959
2018-04-04T06:02:01.000Z,98961
2018-04-04T06:04:01.000Z,98965
2018-04-04T06:06:01.000Z,98980
2018-04-04T06:07:46.000Z,98973
2018-04-04T06:09:01.000Z,98967
2018-04-04T06:10:01.000Z,98971
2018-04-04T06:12:01.000Z,98970
2018-04-04T06:13:01.000Z,98976
2018-04-04T06:15:01.000Z,98978
2018-04-04T06:16:01.000Z,98976
2018-04-04T06:18:01.000Z,98979
2018-04-04T06:19:46.000Z,98978
2018-04-04T06:22:01.000Z,98971
2018-04-04T06:23:01.000Z,98973
2018-04-04T06:24:46.000Z,98961
2018-04-04T06:26:01.000Z,98965
2018-04-04T06:28:01.000Z,98957
2018-04-04T06:30:01.000Z,98952
2018-04-04T06:32:01.000Z,98948
2018-04-04T06:33:01.000Z,98946
2018-04-04T06:35:01.000Z,98951
2018-04-04T06:37:01.000Z,98950
2018-04-04T06:38:46.000Z,98951
2018-04-04T06:41:01.000Z,98948
2018-04-04T06:43:02.000Z,98953
2018-04-04T06:44:02.000Z,98947
2018-04-04T06:46:02.000Z,98944
2018-04-04T06:47:02.000Z,98948
2018-04-04T06:49:02.000Z,98943
2018-04-04T06:51:02.000Z,98957
2018-04-04T06:53:02.000Z,98963
2018-04-04T06:54:02.000Z,98969
2018-04-04T06:55:02.000Z,98966
2018-04-04T06:57:02.000Z,98960
2018-04-04T06:59:02.000Z,98965
2018-04-04T07:01:02.000Z,98964
2018-04-04T07:03:02.000Z,98969
2018-04-04T07:04:02.000Z,98973
2018-04-04T07:05:47.000Z,98976
2018-04-04T07:07:02.000Z,98970
2018-04-04T07:09:02.000Z,98976
2018-04-04T07:10:47.000Z,98966
2018-04-04T07:12:02.000Z,98964
2018-04-04T07:13:47.000Z,98958
2018-04-04T07:15:02.000Z,98961
2018-04-04T07:17:02.000Z,98963
2018-04-04T07:18:02.000Z,98961
2018-04-04T07:20:02.000Z,98967
2018-04-04T07:22:02.000Z,98969
2018-04-04T07:23:02.000Z,98966
2018-04-04T07:24:02.000Z,98964
2018-04-04T07:26:02.000Z,98962
2018-04-04T07:28:02.000Z,98958
2018-04-04T07:30:02.000Z,98959
2018-04-04T07:32:02.000Z,98957
2018-04-04T07:34:02.000Z,98962
2018-04-04T07:36:02.000Z,98956
2018-04-04T07:38:02.000Z,98962
2018-04-04T07:39:47.000Z,98958
2018-04-04T07:41:02.000Z,98960
2018-04-04T07:43:02.000Z,98963
2018-04-04T07:44:02.000Z,98965
2018-04-04T07:46:02.000Z,98967
2018-04-04T07:48:01.000Z,98967
2018-04-04T07:50:01.000Z,98963
2018-04-04T07:52:01.000Z,98971
2018-04-04T07:53:01.000Z,98967
2018-04-04T07:54:01.000Z,98964
2018-04-04T07:56:01.000Z,98964
2018-04-04T07:58:01.000Z,98989
2018-04-04T07:59:01.000Z,98969
2018-04-04T08:04:02.000Z,98968
2018-04-04T08:05:47.000Z,98972
2018-04-04T08:07:47.000Z,98973
2018-04-04T08:09:47.000Z,98987
2018-04-04T08:11:47.000Z,98998
2018-04-04T08:12:47.000Z,98993
2018-04-04T08:14:32.000Z,98994
2018-04-04T08:15:47.000Z,99000
2018-04-04T08:17:47.000Z,98991
2018-04-04T08:19:32.000Z,98986
2018-04-04T08:20:47.000Z,99006
2018-04-04T08:22:47.000Z,98991
2018-04-04T08:23:47.000Z,98994
2018-04-04T08:25:32.000Z,98991
2018-04-04T08:26:47.000Z,98992
2018-04-04T08:28:47.000Z,98989
2018-04-04T08:30:47.000Z,98988
2018-04-04T08:32:32.000Z,98980
2018-04-04T08:33:47.000Z,98981
2018-04-04T08:34:47.000Z,98978
2018-04-04T08:36:32.000Z,98977
2018-04-04T08:37:47.000Z,98987
2018-04-04T08:38:47.000Z,98980
2018-04-04T08:40:47.000Z,98972
2018-04-04T08:41:47.000Z,98970
2018-04-04T08:43:47.000Z,98976
2018-04-04T08:45:47.000Z,98971
2018-04-04T08:46:47.000Z,98973
2018-04-04T08:47:47.000Z,98970
2018-04-04T08:49:47.000Z,98970
2018-04-04T08:51:47.000Z,98968
2018-04-04T08:53:47.000Z,98966
2018-04-04T08:55:47.000Z,98964
2018-04-04T08:56:47.000Z,98964
2018-04-04T08:58:47.000Z,98956
2018-04-04T09:00:47.000Z,98958
2018-04-04T09:02:47.000Z,98958
2018-04-04T09:04:47.000Z,98958
2018-04-04T09:05:47.000Z,98959
2018-04-04T09:07:47.000Z,98960
2018-04-04T09:09:32.000Z,98950
2018-04-04T09:10:47.000Z,98955
2018-04-04T09:11:47.000Z,98944
2018-04-04T09:13:47.000Z,98941
2018-04-04T09:15:47.000Z,98945
2018-04-04T09:17:47.000Z,98938
2018-04-04T09:19:47.000Z,98942
2018-04-04T09:20:47.000Z,98944
2018-04-04T09:22:47.000Z,98938
2018-04-04T09:23:47.000Z,98937
2018-04-04T09:25:47.000Z,98926
2018-04-04T09:27:47.000Z,98926
2018-04-04T09:28:47.000Z,98928
2018-04-04T09:30:47.000Z,98928
2018-04-04T09:31:47.000Z,98921
2018-04-04T09:33:32.000Z,98917
2018-04-04T09:34:47.000Z,98908
2018-04-04T09:36:32.000Z,98910
2018-04-04T09:37:47.000Z,98908
2018-04-04T09:39:47.000Z,98909
2018-04-04T09:41:32.000Z,98908
2018-04-04T09:42:47.000Z,98907
2018-04-04T09:44:47.000Z,98907
2018-04-04T09:46:47.000Z,98896
2018-04-04T09:48:47.000Z,98893
2018-04-04T09:50:32.000Z,98891
2018-04-04T09:52:47.000Z,98887
2018-04-04T09:54:47.000Z,98891
2018-04-04T09:56:47.000Z,98883
2018-04-04T09:58:48.000Z,98878
2018-04-04T10:00:33.000Z,98876
2018-04-04T10:01:48.000Z,98870
2018-04-04T10:03:48.000Z,98873
2018-04-04T10:05:48.000Z,98872
2018-04-04T10:07:48.000Z,98867
2018-04-04T10:09:48.000Z,98868
2018-04-04T10:11:48.000Z,98872
2018-04-04T10:13:48.000Z,98876
2018-04-04T10:15:48.000Z,98884
2018-04-04T10:17:48.000Z,98880
2018-04-04T10:19:48.000Z,98873
2018-04-04T10:20:48.000Z,98877
2018-04-04T10:22:48.000Z,98875
2018-04-04T10:24:48.000Z,98865
2018-04-04T10:25:48.000Z,98863
2018-04-04T10:27:48.000Z,98870
2018-04-04T10:29:48.000Z,98850
2018-04-04T10:30:48.000Z,98855
2018-04-04T10:32:48.000Z,98852
2018-04-04T10:34:48.000Z,98861
2018-04-04T10:35:48.000Z,98866
2018-04-04T10:37:48.000Z,98873
2018-04-04T10:39:48.000Z,98866
2018-04-04T10:41:48.000Z,98868
2018-04-04T10:43:48.000Z,98858
2018-04-04T10:45:33.000Z,98855
2018-04-04T10:46:48.000Z,98857
2018-04-04T10:47:48.000Z,98849
2018-04-04T10:49:48.000Z,98845
2018-04-04T10:51:33.000Z,98838
2018-04-04T10:52:48.000Z,98834
2018-04-04T10:54:33.000Z,98845
2018-04-04T10:55:48.000Z,98841
2018-04-04T10:56:48.000Z,98854
2018-04-04T10:57:48.000Z,98834
2018-04-04T10:59:48.000Z,98834
2018-04-04T11:01:48.000Z,98824
2018-04-04T11:03:48.000Z,98828
2018-04-04T11:04:48.000Z,98833
2018-04-04T11:06:33.000Z,98832
2018-04-04T11:07:48.000Z,98829
2018-04-04T11:08:48.000Z,98827
2018-04-04T11:09:48.000Z,98827
2018-04-04T11:11:48.000Z,98828
2018-04-04T11:13:48.000Z,98822
2018-04-04T11:15:48.000Z,98815
2018-04-04T11:17:48.000Z,98824
2018-04-04T11:19:48.000Z,98834
2018-04-04T11:21:48.000Z,98831
2018-04-04T11:22:48.000Z,98839
2018-04-04T11:24:48.000Z,98827
2018-04-04T11:26:18.000Z,98837
2018-04-04T11:27:48.000Z,98827
2018-04-04T11:28:48.000Z,98852
2018-04-04T11:29:48.000Z,98843
2018-04-04T11:30:48.000Z,98827
2018-04-04T11:32:33.000Z,98832
2018-04-04T11:33:48.000Z,98827
2018-04-04T11:35:48.000Z,98829
2018-04-04T11:37:48.000Z,98833
2018-04-04T11:39:33.000Z,98834
2018-04-04T11:40:48.000Z,98832
2018-04-04T11:42:48.000Z,98824
2018-04-04T11:43:48.000Z,98825
2018-04-04T11:45:48.000Z,98825
2018-04-04T11:47:48.000Z,98822
2018-04-04T11:49:48.000Z,98823
2018-04-04T11:50:48.000Z,98828
2018-04-04T11:51:48.000Z,98831
2018-04-04T11:53:48.000Z,98830
2018-04-04T11:55:48.000Z,98844
2018-04-04T11:57:48.000Z,98843
2018-04-04T11:58:48.000Z,98831
2018-04-04T11:59:48.000Z,98828
2018-04-04T12:01:48.000Z,98817
2018-04-04T12:03:48.000Z,98834
2018-04-04T12:05:48.000Z,98836
2018-04-04T12:06:47.000Z,98838
2018-04-04T12:07:47.000Z,98822
2018-04-04T12:09:47.000Z,98831
2018-04-04T12:11:32.000Z,98823
2018-04-04T12:12:47.000Z,98811
2018-04-04T12:13:47.000Z,98819
2018-04-04T12:15:47.000Z,98821
2018-04-04T12:17:47.000Z,98825
2018-04-04T12:18:47.000Z,98813
2018-04-04T12:20:47.000Z,98826
2018-04-04T12:22:47.000Z,98826
2018-04-04T12:23:47.000Z,98807
2018-04-04T12:25:47.000Z,98829
2018-04-04T12:27:47.000Z,98857
2018-04-04T12:29:32.000Z,98831
2018-04-04T12:30:47.000Z,98817
2018-04-04T12:32:32.000Z,98815
2018-04-04T12:33:47.000Z,98822
2018-04-04T12:35:47.000Z,98814
2018-04-04T12:37:47.000Z,98803
2018-04-04T12:39:17.000Z,98819
2018-04-04T12:40:47.000Z,98812
2018-04-04T12:41:47.000Z,98814
2018-04-04T12:43:47.000Z,98805
2018-04-04T12:45:47.000Z,98806
2018-04-04T12:47:47.000Z,98805
2018-04-04T12:48:47.000Z,98804
2018-04-04T12:50:47.000Z,98810
2018-04-04T12:51:47.000Z,98809
2018-04-04T12:52:47.000Z,98814
2018-04-04T12:54:47.000Z,98811
2018-04-04T12:56:47.000Z,98805
2018-04-04T12:58:32.000Z,98799
2018-04-04T12:59:47.000Z,98808
2018-04-04T13:01:47.000Z,98807
2018-04-04T13:03:47.000Z,98813
2018-04-04T13:05:47.000Z,98807
2018-04-04T13:07:47.000Z,98803
2018-04-04T13:08:47.000Z,98818
2018-04-04T13:09:47.000Z,98816
2018-04-04T13:11:48.000Z,98814
2018-04-04T13:13:48.000Z,98813
2018-04-04T13:15:33.000Z,98804
2018-04-04T13:16:48.000Z,98800
2018-04-04T13:18:48.000Z,98792
2018-04-04T13:20:48.000Z,98792
2018-04-04T13:22:48.000Z,98802
2018-04-04T13:23:48.000Z,98793
2018-04-04T13:25:48.000Z,98798
2018-04-04T13:26:48.000Z,98794
2018-04-04T13:28:33.000Z,98795
2018-04-04T13:29:48.000Z,98796
2018-04-04T13:31:48.000Z,98791
2018-04-04T13:33:48.000Z,98801
2018-04-04T13:35:33.000Z,98801
2018-04-04T13:36:48.000Z,98798
2018-04-04T13:38:48.000Z,98800
2018-04-04T13:39:48.000Z,98800
2018-04-04T13:41:48.000Z,98806
2018-04-04T13:43:48.000Z,98801
2018-04-04T13:44:48.000Z,98807
2018-04-04T13:46:48.000Z,98805
2018-04-04T13:48:48.000Z,98801
2018-04-04T13:50:48.000Z,98804
2018-04-04T13:52:48.000Z,98800
2018-04-04T13:53:48.000Z,98792
2018-04-04T13:55:48.000Z,98794
2018-04-04T13:57:18.000Z,98794
2018-04-04T13:58:48.000Z,98789
2018-04-04T14:00:48.000Z,98789
2018-04-04T14:01:48.000Z,98791
2018-04-04T14:02:48.000Z,98783
2018-04-04T14:04:48.000Z,98801
2018-04-04T14:05:48.000Z,98797
2018-04-04T14:07:48.000Z,98789
2018-04-04T14:09:48.000Z,98797
2018-04-04T14:10:48.000Z,98791
2018-04-04T14:11:48.000Z,98792
2018-04-04T14:13:48.000Z,98783
2018-04-04T14:15:48.000Z,98784
2018-04-04T14:17:48.000Z,98781
2018-04-04T14:19:48.000Z,98781
2018-04-04T14:21:33.000Z,98771
2018-04-04T14:22:48.000Z,98774
2018-04-04T14:24:48.000Z,98767
2018-04-04T14:26:48.000Z,98768
2018-04-04T14:28:48.000Z,98773
2018-04-04T14:29:48.000Z,98774
2018-04-04T14:31:48.000Z,98779
2018-04-04T14:33:48.000Z,98787
2018-04-04T14:35:33.000Z,98791
2018-04-04T14:36:48.000Z,98794
2018-04-04T14:37:48.000Z,98796
2018-04-04T14:39:48.000Z,98794
2018-04-04T14:41:33.000Z,98807
2018-04-04T14:42:48.000Z,98805
2018-04-04T14:44:48.000Z,98806
2018-04-04T14:46:48.000Z,98811
2018-04-04T14:48:48.000Z,98805
2018-04-04T14:50:48.000Z,98798
2018-04-04T14:51:48.000Z,98793
2018-04-04T14:53:33.000Z,98788
2018-04-04T14:54:48.000Z,98795
2018-04-04T14:55:48.000Z,98787
2018-04-04T14:57:48.000Z,98786
2018-04-04T14:59:48.000Z,98779
2018-04-04T15:01:48.000Z,98782
2018-04-04T15:02:48.000Z,98784
2018-04-04T15:04:33.000Z,98788
2018-04-04T15:05:48.000Z,98782
2018-04-04T15:06:48.000Z,98783
2018-04-04T15:08:48.000Z,98786
2018-04-04T15:09:48.000Z,98792
2018-04-04T15:10:48.000Z,98796
2018-04-04T15:12:33.000Z,98789
2018-04-04T15:13:48.000Z,98795
2018-04-04T15:15:48.000Z,98798
2018-04-04T15:16:48.000Z,98797
2018-04-04T15:18:48.000Z,98792
2018-04-04T15:20:48.000Z,98790
2018-04-04T15:22:33.000Z,98792
2018-04-04T15:23:48.000Z,98781
2018-04-04T15:24:48.000Z,98777
2018-04-04T15:25:48.000Z,98786
2018-04-04T15:27:48.000Z,98775
2018-04-04T15:29:48.000Z,98792
2018-04-04T15:31:48.000Z,98785
2018-04-04T15:35:34.000Z,98784
2018-04-04T15:36:34.000Z,98785
2018-04-04T15:38:34.000Z,98777
2018-04-04T15:40:34.000Z,98788
2018-04-04T15:42:34.000Z,98777
2018-04-04T15:43:34.000Z,98781
2018-04-04T15:45:34.000Z,98782
2018-04-04T15:47:34.000Z,98776
2018-04-04T15:49:34.000Z,98773
2018-04-04T15:51:34.000Z,98777
2018-04-04T15:53:34.000Z,98776
2018-04-04T15:55:34.000Z,98771
2018-04-04T15:57:19.000Z,98803
2018-04-04T15:58:34.000Z,98773
2018-04-04T16:00:34.000Z,98767
2018-04-04T16:02:19.000Z,98770
2018-04-04T16:03:34.000Z,98767
2018-04-04T16:05:34.000Z,98778
2018-04-04T16:06:34.000Z,98764
2018-04-04T16:08:34.000Z,98763
2018-04-04T16:10:34.000Z,98752
2018-04-04T16:12:34.000Z,98748
2018-04-04T16:13:34.000Z,98751
2018-04-04T16:14:34.000Z,98743
2018-04-04T16:16:34.000Z,98747
2018-04-04T16:18:34.000Z,98742
2018-04-04T16:19:34.000Z,98744
2018-04-04T16:21:33.000Z,98745
2018-04-04T16:23:33.000Z,98741
2018-04-04T16:25:18.000Z,98751
2018-04-04T16:26:33.000Z,98750
2018-04-04T16:27:34.000Z,98750
2018-04-04T16:29:33.000Z,98753
2018-04-04T16:31:34.000Z,98762
2018-04-04T16:33:18.000Z,98761
2018-04-04T16:34:33.000Z,98760
2018-04-04T16:35:33.000Z,98760
2018-04-04T16:37:33.000Z,98768
2018-04-04T16:39:33.000Z,98762
2018-04-04T16:41:18.000Z,98767
2018-04-04T16:42:33.000Z,98763
2018-04-04T16:43:34.000Z,98771
2018-04-04T16:45:18.000Z,98769
2018-04-04T16:46:33.000Z,98766
2018-04-04T16:47:34.000Z,98766
2018-04-04T16:49:33.000Z,98761
2018-04-04T16:51:03.000Z,98762
2018-04-04T16:52:33.000Z,98754
2018-04-04T16:53:33.000Z,98758
2018-04-04T16:55:33.000Z,98755
2018-04-04T16:56:34.000Z,98751
2018-04-04T16:58:34.000Z,98747
2018-04-04T17:00:34.000Z,98746
2018-04-04T17:02:33.000Z,98745
2018-04-04T17:03:34.000Z,98742
2018-04-04T17:05:33.000Z,98741
2018-04-04T17:06:33.000Z,98736
2018-04-04T17:07:33.000Z,98739
2018-04-04T17:09:34.000Z,98740
2018-04-04T17:11:34.000Z,98732
2018-04-04T17:12:34.000Z,98733
2018-04-04T17:14:33.000Z,98724
2018-04-04T17:15:34.000Z,98728
2018-04-04T17:17:33.000Z,98724
2018-04-04T17:18:33.000Z,98729
2018-04-04T17:19:33.000Z,98724
2018-04-04T17:20:33.000Z,98727
2018-04-04T17:22:33.000Z,98727
2018-04-04T17:24:34.000Z,98725
2018-04-04T17:26:34.000Z,98716
2018-04-04T17:27:34.000Z,98724
2018-04-04T17:28:34.000Z,98713
2018-04-04T17:29:34.000Z,98713
2018-04-04T17:30:34.000Z,98717
2018-04-04T17:32:34.000Z,98721
2018-04-04T17:34:34.000Z,98719
2018-04-04T17:36:34.000Z,98710
2018-04-04T17:38:34.000Z,98720
2018-04-04T17:40:34.000Z,98731
2018-04-04T17:41:34.000Z,98732
2018-04-04T17:43:34.000Z,98732
2018-04-04T17:45:34.000Z,98728
2018-04-04T17:46:34.000Z,98729
2018-04-04T17:48:34.000Z,98728
2018-04-04T17:49:34.000Z,98726
2018-04-04T17:51:34.000Z,98739
2018-04-04T17:52:34.000Z,98740
2018-04-04T17:54:19.000Z,98737
2018-04-04T17:55:34.000Z,98732
2018-04-04T17:57:34.000Z,98733
2018-04-04T17:58:34.000Z,98730
2018-04-04T18:00:34.000Z,98731
2018-04-04T18:02:34.000Z,98733
2018-04-04T18:04:34.000Z,98733
2018-04-04T18:05:34.000Z,98734
2018-04-04T18:07:34.000Z,98735
2018-04-04T18:09:34.000Z,98739
2018-04-04T18:10:34.000Z,98738
2018-04-04T18:12:34.000Z,98744
2018-04-04T18:13:34.000Z,98742
2018-04-04T18:15:34.000Z,98748
2018-04-04T18:17:34.000Z,98750
2018-04-04T18:18:34.000Z,98754
2018-04-04T18:20:34.000Z,98751
2018-04-04T18:21:34.000Z,98748
2018-04-04T18:23:34.000Z,98753
2018-04-04T18:25:19.000Z,98752
2018-04-04T18:26:34.000Z,98755
2018-04-04T18:28:34.000Z,98759
2018-04-04T18:29:34.000Z,98752
2018-04-04T18:31:19.000Z,98759
2018-04-04T18:32:34.000Z,98756
2018-04-04T18:34:19.000Z,98751
2018-04-04T18:35:34.000Z,98755
2018-04-04T18:37:34.000Z,98756
2018-04-04T18:39:34.000Z,98749
2018-04-04T18:41:34.000Z,98759
2018-04-04T18:42:34.000Z,98764
2018-04-04T18:44:34.000Z,98759
2018-04-04T18:46:19.000Z,98756
2018-04-04T18:47:34.000Z,98760
2018-04-04T18:49:34.000Z,98763
2018-04-04T18:51:19.000Z,98767
2018-04-04T18:52:34.000Z,98764
2018-04-04T18:53:34.000Z,98769
2018-04-04T18:54:34.000Z,98772
2018-04-04T18:56:34.000Z,98776
2018-04-04T18:57:34.000Z,98770
2018-04-04T18:58:34.000Z,98768
2018-04-04T19:00:34.000Z,98775
2018-04-04T19:02:19.000Z,98773
2018-04-04T19:03:34.000Z,98780
2018-04-04T19:05:04.000Z,98783
2018-04-04T19:06:34.000Z,98789
2018-04-04T19:08:34.000Z,98793
2018-04-04T19:09:34.000Z,98787
2018-04-04T19:11:34.000Z,98786
2018-04-04T19:12:34.000Z,98793
2018-04-04T19:14:19.000Z,98794
2018-04-04T19:15:34.000Z,98795
2018-04-04T19:17:04.000Z,98798
2018-04-04T19:18:34.000Z,98797
2018-04-04T19:20:34.000Z,98792
2018-04-04T19:22:34.000Z,98790
2018-04-04T19:24:34.000Z,98793
2018-04-04T19:25:34.000Z,98790
2018-04-04T19:27:34.000Z,98792
2018-04-04T19:29:34.000Z,98789
2018-04-04T19:31:34.000Z,98796
2018-04-04T19:33:33.000Z,98802
2018-04-04T19:34:33.000Z,98794
2018-04-04T19:36:33.000Z,98803
2018-04-04T19:37:33.000Z,98802
2018-04-04T19:39:33.000Z,98806
2018-04-04T19:40:33.000Z,98802
2018-04-04T19:42:33.000Z,98811
2018-04-04T19:44:33.000Z,98818
2018-04-04T19:46:33.000Z,98824
2018-04-04T19:47:33.000Z,98820
2018-04-04T19:49:33.000Z,98816
2018-04-04T19:51:33.000Z,98825
2018-04-04T19:53:33.000Z,98830
2018-04-04T19:55:33.000Z,98820
2018-04-04T19:57:33.000Z,98825
2018-04-04T19:59:33.000Z,98817
2018-04-04T20:00:33.000Z,98820
2018-04-04T20:02:33.000Z,98816
2018-04-04T20:04:33.000Z,98815
2018-04-04T20:06:33.000Z,98816
2018-04-04T20:07:33.000Z,98819
2018-04-04T20:09:33.000Z,98820
2018-04-04T20:11:18.000Z,98812
2018-04-04T20:12:33.000Z,98814
2018-04-04T20:13:33.000Z,98817
2018-04-04T20:15:33.000Z,98812
2018-04-04T20:16:33.000Z,98813
2018-04-04T20:18:18.000Z,98811
2018-04-04T20:19:33.000Z,98812
2018-04-04T20:21:33.000Z,98804
2018-04-04T20:23:33.000Z,98810
2018-04-04T20:24:33.000Z,98817
2018-04-04T20:26:33.000Z,98815
2018-04-04T20:28:18.000Z,98812
2018-04-04T20:29:33.000Z,98814
2018-04-04T20:31:33.000Z,98809
2018-04-04T20:33:18.000Z,98811
2018-04-04T20:37:05.000Z,98803
2018-04-04T20:39:05.000Z,98806
2018-04-04T20:40:05.000Z,98804
2018-04-04T20:41:05.000Z,98801
2018-04-04T20:43:05.000Z,98802
2018-04-04T20:44:49.000Z,98799
2018-04-04T20:46:05.000Z,98800
2018-04-04T20:47:05.000Z,98789
2018-04-04T20:49:05.000Z,98797
2018-04-04T20:50:05.000Z,98789
2018-04-04T20:52:05.000Z,98790
2018-04-04T20:53:05.000Z,98788
2018-04-04T20:54:49.000Z,98795
2018-04-04T20:56:05.000Z,98798
2018-04-04T20:58:05.000Z,98799
2018-04-04T20:59:05.000Z,98792
2018-04-04T21:01:05.000Z,98800
2018-04-04T21:03:05.000Z,98794
2018-04-04T21:05:05.000Z,98793
2018-04-04T21:06:34.000Z,98796
2018-04-04T21:08:05.000Z,98793